createdAt,value
2022-11-26T00:00:17.375Z,87.87
2022-11-26T00:01:17.308Z,88.15
2022-11-26T00:02:17.422Z,88.15
2022-11-26T00:03:17.180Z,87.39
2022-11-26T00:04:17.038Z,87.58
2022-11-26T00:05:16.971Z,87.87
2022-11-26T00:06:16.870Z,87.20
2022-11-26T00:07:16.801Z,87.39
2022-11-26T00:08:16.815Z,87.96
2022-11-26T00:09:16.615Z,87.77
2022-11-26T00:10:16.532Z,87.30
2022-11-26T00:11:16.444Z,87.68
2022-11-26T00:12:16.362Z,87.11
2022-11-26T00:13:16.278Z,87.11
2022-11-26T00:14:16.194Z,87.49
2022-11-26T00:15:16.164Z,87.30
2022-11-26T00:16:16.070Z,88.06
2022-11-26T00:17:15.938Z,87.58
2022-11-26T00:18:15.857Z,87.20
2022-11-26T00:19:15.821Z,86.63
2022-11-26T00:20:15.687Z,86.54
2022-11-26T00:21:15.600Z,86.91
2022-11-26T00:22:15.519Z,86.44
2022-11-26T00:23:15.433Z,86.82
2022-11-26T00:24:15.347Z,86.07
2022-11-26T00:25:15.262Z,86.07
2022-11-26T00:26:15.179Z,86.07
2022-11-26T00:27:15.094Z,86.07
2022-11-26T00:28:15.012Z,86.07
2022-11-26T00:29:14.925Z,85.87
2022-11-26T00:30:14.847Z,86.16
2022-11-26T00:31:14.833Z,85.49
2022-11-26T00:32:14.732Z,85.11
2022-11-26T00:33:14.593Z,85.35
2022-11-26T00:34:14.504Z,85.16
2022-11-26T00:35:14.419Z,84.87
2022-11-26T00:36:14.336Z,85.06
2022-11-26T00:37:14.251Z,85.16
2022-11-26T00:38:14.168Z,85.06
2022-11-26T00:39:14.084Z,85.06
2022-11-26T00:40:14.000Z,85.16
2022-11-26T00:41:13.916Z,84.97
2022-11-26T00:42:13.833Z,85.06
2022-11-26T00:43:13.745Z,85.16
2022-11-26T00:44:13.663Z,84.97
2022-11-26T00:45:13.582Z,84.97
2022-11-26T00:46:13.589Z,85.16
2022-11-26T00:47:13.442Z,85.06
2022-11-26T00:48:13.328Z,85.44
2022-11-26T00:49:13.245Z,85.16
2022-11-26T00:50:13.156Z,85.06
2022-11-26T00:51:13.078Z,84.97
2022-11-26T00:52:12.989Z,84.97
2022-11-26T00:53:12.906Z,84.78
2022-11-26T00:54:12.821Z,84.97
2022-11-26T00:55:12.740Z,85.25
2022-11-26T00:56:12.655Z,84.87
2022-11-26T00:57:12.575Z,84.97
2022-11-26T00:58:12.487Z,85.06
2022-11-26T00:59:12.402Z,84.59
2022-11-26T01:00:12.318Z,84.97
2022-11-26T01:01:12.294Z,84.97
2022-11-26T01:02:12.236Z,84.97
2022-11-26T01:03:12.087Z,85.16
2022-11-26T01:04:11.982Z,84.97
2022-11-26T01:05:11.899Z,84.97
2022-11-26T01:06:11.814Z,84.78
2022-11-26T01:07:11.782Z,84.68
2022-11-26T01:08:11.645Z,84.40
2022-11-26T01:09:11.563Z,84.49
2022-11-26T01:10:11.478Z,84.40
2022-11-26T01:11:11.396Z,84.30
2022-11-26T01:12:11.311Z,84.21
2022-11-26T01:13:11.230Z,84.30
2022-11-26T01:14:11.143Z,84.59
2022-11-26T01:15:11.062Z,83.92
2022-11-26T01:16:11.028Z,84.49
2022-11-26T01:17:10.893Z,83.64
2022-11-26T01:18:10.808Z,83.36
2022-11-26T01:19:10.747Z,83.16
2022-11-26T01:20:10.641Z,83.26
2022-11-26T01:21:10.559Z,83.16
2022-11-26T01:22:10.472Z,82.88
2022-11-26T01:23:10.390Z,83.36
2022-11-26T01:24:10.306Z,83.54
2022-11-26T01:25:10.223Z,83.45
2022-11-26T01:26:10.137Z,83.26
2022-11-26T01:27:10.053Z,83.26
2022-11-26T01:28:09.972Z,83.78
2022-11-26T01:29:09.890Z,83.68
2022-11-26T01:30:09.805Z,83.68
2022-11-26T01:31:09.751Z,83.68
2022-11-26T01:32:09.695Z,83.59
2022-11-26T01:33:09.555Z,83.30
2022-11-26T01:34:09.521Z,84.06
2022-11-26T01:35:09.411Z,83.68
2022-11-26T01:36:09.305Z,83.59
2022-11-26T01:37:09.218Z,83.78
2022-11-26T01:38:09.137Z,83.87
2022-11-26T01:39:09.055Z,83.30
2022-11-26T01:40:09.017Z,83.59
2022-11-26T01:41:08.889Z,82.92
2022-11-26T01:42:08.801Z,83.11
2022-11-26T01:43:08.719Z,83.30
2022-11-26T01:44:08.633Z,83.39
2022-11-26T01:45:08.551Z,82.54
2022-11-26T01:46:08.511Z,82.54
2022-11-26T01:47:08.386Z,82.82
2022-11-26T01:48:08.305Z,82.73
2022-11-26T01:49:08.217Z,82.54
2022-11-26T01:50:08.138Z,82.92
2022-11-26T01:51:08.072Z,83.39
2022-11-26T01:52:07.970Z,83.01
2022-11-26T01:53:07.885Z,83.39
2022-11-26T01:54:07.805Z,83.39
2022-11-26T01:55:07.723Z,83.20
2022-11-26T01:56:07.637Z,83.97
2022-11-26T01:57:07.555Z,83.87
2022-11-26T01:58:07.472Z,83.78
2022-11-26T01:59:07.387Z,83.68
2022-11-26T02:00:07.304Z,83.78
2022-11-26T02:01:07.273Z,83.68
2022-11-26T02:02:07.174Z,83.78
2022-11-26T02:03:07.056Z,83.97
2022-11-26T02:04:06.973Z,84.16
2022-11-26T02:05:06.888Z,83.97
2022-11-26T02:06:06.807Z,83.97
2022-11-26T02:07:06.743Z,83.97
2022-11-26T02:08:06.841Z,84.39
2022-11-26T02:09:06.559Z,84.77
2022-11-26T02:10:06.477Z,84.39
2022-11-26T02:11:06.443Z,84.82
2022-11-26T02:12:06.311Z,85.77
2022-11-26T02:13:06.226Z,85.77
2022-11-26T02:14:06.151Z,85.86
2022-11-26T02:15:06.060Z,86.34
2022-11-26T02:16:06.041Z,86.05
2022-11-26T02:17:05.894Z,87.10
2022-11-26T02:18:06.061Z,86.91
2022-11-26T02:19:05.730Z,87.01
2022-11-26T02:20:05.647Z,87.19
2022-11-26T02:21:05.563Z,87.38
2022-11-26T02:22:05.482Z,87.57
2022-11-26T02:23:05.417Z,88.15
2022-11-26T02:24:05.564Z,88.15
2022-11-26T02:25:05.232Z,87.76
2022-11-26T02:26:05.149Z,88.24
2022-11-26T02:27:05.065Z,87.67
2022-11-26T02:28:04.988Z,87.29
2022-11-26T02:29:04.898Z,87.10
2022-11-26T02:30:04.817Z,87.19
2022-11-26T02:31:04.734Z,87.01
2022-11-26T02:32:04.725Z,87.19
2022-11-26T02:33:04.567Z,86.91
2022-11-26T02:34:04.489Z,87.19
2022-11-26T02:35:04.401Z,87.10
2022-11-26T02:36:04.318Z,87.48
2022-11-26T02:37:04.237Z,86.91
2022-11-26T02:38:04.150Z,87.19
2022-11-26T02:39:04.092Z,86.82
2022-11-26T02:40:03.986Z,86.91
2022-11-26T02:41:03.952Z,86.82
2022-11-26T02:42:03.823Z,86.91
2022-11-26T02:43:03.737Z,87.01
2022-11-26T02:44:03.654Z,86.82
2022-11-26T02:45:03.572Z,86.82
2022-11-26T02:46:03.605Z,87.19
2022-11-26T02:47:03.408Z,87.57
2022-11-26T02:48:03.322Z,87.57
2022-11-26T02:49:03.241Z,87.57
2022-11-26T02:50:03.157Z,87.19
2022-11-26T02:51:03.075Z,87.19
2022-11-26T02:52:02.990Z,87.57
2022-11-26T02:53:02.905Z,87.01
2022-11-26T02:54:02.825Z,87.01
2022-11-26T02:55:02.760Z,87.57
2022-11-26T02:56:02.671Z,87.48
2022-11-26T02:57:02.576Z,87.10
2022-11-26T02:58:02.494Z,86.72
2022-11-26T02:59:02.409Z,86.63
2022-11-26T03:00:02.333Z,86.91
2022-11-26T03:01:02.277Z,86.91
2022-11-26T03:02:02.167Z,87.05
2022-11-26T03:03:02.077Z,87.10
2022-11-26T03:04:02.090Z,87.24
2022-11-26T03:05:01.912Z,86.47
2022-11-26T03:06:01.834Z,87.10
2022-11-26T03:07:01.747Z,87.10
2022-11-26T03:08:01.663Z,87.05
2022-11-26T03:09:01.579Z,87.52
2022-11-26T03:10:01.503Z,87.38
2022-11-26T03:11:01.437Z,87.01
2022-11-26T03:12:01.436Z,87.01
2022-11-26T03:13:01.248Z,87.24
2022-11-26T03:14:01.171Z,86.76
2022-11-26T03:15:01.086Z,87.01
2022-11-26T03:16:01.049Z,86.95
2022-11-26T03:17:00.920Z,86.95
2022-11-26T03:18:00.836Z,86.86
2022-11-26T03:19:00.752Z,87.14
2022-11-26T03:20:00.669Z,87.43
2022-11-26T03:21:00.587Z,87.43
2022-11-26T03:22:00.505Z,87.14
2022-11-26T03:23:00.422Z,87.71
2022-11-26T03:24:00.339Z,87.81
2022-11-26T03:25:00.262Z,88.19
2022-11-26T03:26:00.174Z,87.90
2022-11-26T03:27:00.109Z,87.62
2022-11-26T03:28:00.009Z,88.19
2022-11-26T03:28:59.923Z,88.67
2022-11-26T03:29:59.844Z,88.38
2022-11-26T03:30:59.760Z,89.23
2022-11-26T03:31:59.770Z,89.23
2022-11-26T03:32:59.594Z,89.71
2022-11-26T03:33:59.514Z,90.09
2022-11-26T03:34:59.431Z,90.00
2022-11-26T03:35:59.348Z,90.00
2022-11-26T03:36:59.265Z,90.37
2022-11-26T03:37:59.182Z,90.47
2022-11-26T03:38:59.099Z,90.85
2022-11-26T03:39:59.066Z,91.13
2022-11-26T03:40:58.935Z,91.99
2022-11-26T03:41:58.852Z,91.71
2022-11-26T03:42:58.796Z,91.61
2022-11-26T03:43:58.689Z,92.27
2022-11-26T03:44:58.601Z,91.52
2022-11-26T03:45:58.590Z,92.46
2022-11-26T03:46:58.441Z,91.89
2022-11-26T03:47:58.357Z,91.99
2022-11-26T03:48:58.273Z,91.80
2022-11-26T03:49:58.191Z,91.99
2022-11-26T03:50:58.310Z,91.80
2022-11-26T03:51:58.033Z,92.66
2022-11-26T03:52:57.945Z,92.94
2022-11-26T03:53:57.863Z,92.46
2022-11-26T03:54:57.778Z,92.66
2022-11-26T03:55:57.696Z,92.46
2022-11-26T03:56:57.613Z,93.23
2022-11-26T03:57:57.531Z,93.51
2022-11-26T03:58:57.481Z,93.23
2022-11-26T03:59:57.367Z,93.70
2022-11-26T04:00:57.370Z,93.51
2022-11-26T04:01:57.247Z,93.23
2022-11-26T04:02:57.146Z,92.99
2022-11-26T04:03:57.040Z,92.99
2022-11-26T04:04:56.955Z,92.99
2022-11-26T04:05:56.870Z,93.04
2022-11-26T04:06:56.787Z,92.61
2022-11-26T04:07:56.789Z,92.61
2022-11-26T04:08:56.619Z,92.32
2022-11-26T04:09:56.538Z,92.80
2022-11-26T04:10:56.458Z,92.71
2022-11-26T04:11:56.379Z,92.42
2022-11-26T04:12:56.289Z,92.13
2022-11-26T04:13:56.209Z,92.32
2022-11-26T04:14:56.142Z,92.80
2022-11-26T04:15:56.040Z,92.71
2022-11-26T04:16:56.037Z,92.04
2022-11-26T04:17:55.876Z,92.42
2022-11-26T04:18:55.792Z,91.85
2022-11-26T04:19:55.712Z,91.66
2022-11-26T04:20:55.631Z,92.51
2022-11-26T04:21:55.547Z,92.51
2022-11-26T04:22:55.460Z,92.71
2022-11-26T04:23:55.380Z,92.42
2022-11-26T04:24:55.296Z,92.42
2022-11-26T04:25:55.211Z,92.42
2022-11-26T04:26:55.128Z,92.99
2022-11-26T04:27:55.047Z,92.99
2022-11-26T04:28:54.963Z,92.61
2022-11-26T04:29:54.879Z,92.32
2022-11-26T04:30:54.819Z,92.99
2022-11-26T04:31:54.798Z,93.18
2022-11-26T04:32:54.628Z,93.27
2022-11-26T04:33:54.604Z,93.65
2022-11-26T04:34:54.461Z,93.37
2022-11-26T04:35:54.379Z,93.46
2022-11-26T04:36:54.296Z,93.65
2022-11-26T04:37:54.215Z,94.08
2022-11-26T04:38:54.130Z,94.46
2022-11-26T04:39:54.047Z,94.74
2022-11-26T04:40:53.961Z,94.65
2022-11-26T04:41:53.879Z,94.65
2022-11-26T04:42:53.799Z,95.51
2022-11-26T04:43:53.723Z,94.93
2022-11-26T04:44:53.628Z,95.03
2022-11-26T04:45:53.582Z,95.12
2022-11-26T04:46:53.479Z,95.51
2022-11-26T04:47:53.376Z,95.79
2022-11-26T04:48:53.342Z,95.60
2022-11-26T04:49:53.207Z,95.51
2022-11-26T04:50:53.126Z,95.79
2022-11-26T04:51:53.043Z,95.70
2022-11-26T04:52:52.956Z,95.84
2022-11-26T04:53:55.759Z,95.84
2022-11-26T04:54:52.788Z,95.93
2022-11-26T04:55:52.704Z,96.50
2022-11-26T04:56:52.620Z,96.50
2022-11-26T04:57:52.538Z,96.78
2022-11-26T04:58:52.452Z,96.50
2022-11-26T04:59:52.367Z,96.41
2022-11-26T05:00:52.355Z,96.12
2022-11-26T05:01:52.198Z,96.41
2022-11-26T05:02:52.167Z,96.12
2022-11-26T05:03:52.030Z,96.55
2022-11-26T05:04:51.946Z,96.45
2022-11-26T05:05:51.860Z,96.26
2022-11-26T05:06:51.776Z,96.55
2022-11-26T05:07:51.737Z,96.36
2022-11-26T05:08:51.606Z,96.17
2022-11-26T05:09:51.525Z,95.69
2022-11-26T05:10:51.438Z,96.64
2022-11-26T05:11:51.352Z,95.69
2022-11-26T05:12:51.270Z,95.22
2022-11-26T05:13:51.533Z,95.03
2022-11-26T05:14:51.103Z,94.74
2022-11-26T05:15:51.015Z,95.31
2022-11-26T05:16:50.986Z,95.98
2022-11-26T05:17:50.844Z,95.79
2022-11-26T05:18:50.783Z,95.41
2022-11-26T05:19:50.676Z,94.93
2022-11-26T05:20:50.589Z,95.22
2022-11-26T05:21:50.505Z,95.03
2022-11-26T05:22:50.420Z,94.46
2022-11-26T05:23:50.332Z,93.89
2022-11-26T05:24:50.249Z,93.41
2022-11-26T05:25:50.165Z,92.42
2022-11-26T05:26:53.751Z,92.47
2022-11-26T05:27:49.993Z,92.28
2022-11-26T05:28:49.999Z,91.42
2022-11-26T05:29:49.824Z,91.90
2022-11-26T05:30:49.737Z,91.14
2022-11-26T05:31:49.781Z,90.76
2022-11-26T05:32:49.569Z,90.76
2022-11-26T05:33:49.482Z,90.19
2022-11-26T05:34:49.421Z,90.19
2022-11-26T05:35:49.360Z,89.62
2022-11-26T05:36:49.228Z,90.29
2022-11-26T05:37:49.143Z,90.10
2022-11-26T05:38:49.058Z,89.96
2022-11-26T05:39:48.972Z,90.15
2022-11-26T05:40:48.986Z,89.86
2022-11-26T05:41:48.804Z,90.24
2022-11-26T05:42:48.715Z,90.34
2022-11-26T05:43:48.630Z,90.24
2022-11-26T05:44:48.547Z,89.96
2022-11-26T05:45:48.486Z,90.24
2022-11-26T05:46:48.378Z,89.86
2022-11-26T05:47:48.285Z,89.01
2022-11-26T05:48:48.202Z,89.11
2022-11-26T05:49:48.114Z,89.20
2022-11-26T05:50:53.158Z,89.01
2022-11-26T05:51:47.942Z,89.20
2022-11-26T05:52:47.871Z,89.29
2022-11-26T05:53:47.774Z,90.24
2022-11-26T05:54:47.689Z,90.24
2022-11-26T05:55:47.750Z,90.15
2022-11-26T05:56:47.518Z,90.34
2022-11-26T05:57:47.430Z,90.34
2022-11-26T05:58:47.545Z,90.72
2022-11-26T05:59:47.258Z,90.43
2022-11-26T06:00:47.172Z,90.81
2022-11-26T06:01:47.166Z,90.72
2022-11-26T06:02:47.186Z,90.05
2022-11-26T06:03:47.015Z,90.34
2022-11-26T06:04:46.830Z,90.24
2022-11-26T06:05:46.948Z,90.62
2022-11-26T06:06:46.684Z,90.05
2022-11-26T06:07:46.642Z,89.58
2022-11-26T06:08:46.489Z,89.96
2022-11-26T06:09:46.403Z,90.34
2022-11-26T06:10:46.468Z,90.62
2022-11-26T06:11:46.229Z,90.95
2022-11-26T06:12:46.145Z,90.86
2022-11-26T06:13:46.059Z,91.24
2022-11-26T06:14:46.374Z,90.67
2022-11-26T06:15:45.886Z,90.10
2022-11-26T06:16:45.864Z,90.24
2022-11-26T06:17:45.765Z,89.58
2022-11-26T06:18:45.879Z,89.91
2022-11-26T06:19:45.541Z,89.82
2022-11-26T06:20:45.459Z,89.53
2022-11-26T06:21:45.371Z,89.96
2022-11-26T06:22:45.306Z,89.91
2022-11-26T06:23:52.913Z,89.53
2022-11-26T06:24:45.113Z,89.53
2022-11-26T06:25:45.028Z,89.15
2022-11-26T06:26:44.943Z,88.87
2022-11-26T06:27:44.854Z,88.82
2022-11-26T06:28:44.922Z,88.11
2022-11-26T06:29:44.692Z,88.25
2022-11-26T06:30:44.600Z,88.16
2022-11-26T06:31:44.562Z,88.06
2022-11-26T06:32:44.425Z,87.87
2022-11-26T06:33:44.340Z,88.02
2022-11-26T06:34:44.680Z,87.49
2022-11-26T06:35:44.168Z,87.40
2022-11-26T06:36:44.106Z,86.93
2022-11-26T06:37:43.995Z,86.74
2022-11-26T06:38:43.929Z,86.83
2022-11-26T06:39:43.874Z,86.45
2022-11-26T06:40:43.741Z,86.74
2022-11-26T06:41:43.652Z,86.64
2022-11-26T06:42:43.567Z,86.93
2022-11-26T06:43:43.482Z,86.83
2022-11-26T06:44:43.396Z,86.64
2022-11-26T06:45:43.379Z,87.30
2022-11-26T06:46:43.274Z,86.93
2022-11-26T06:47:43.137Z,86.69
2022-11-26T06:48:43.053Z,86.64
2022-11-26T06:49:42.965Z,87.12
2022-11-26T06:50:42.886Z,86.16
2022-11-26T06:51:42.793Z,86.26
2022-11-26T06:52:42.708Z,86.26
2022-11-26T06:53:42.621Z,86.83
2022-11-26T06:54:42.556Z,86.35
2022-11-26T06:55:42.449Z,86.16
2022-11-26T06:56:42.365Z,86.26
2022-11-26T06:57:42.276Z,86.16
2022-11-26T06:58:42.195Z,85.88
2022-11-26T06:59:42.117Z,85.88
2022-11-26T07:00:42.021Z,85.88
2022-11-26T07:01:41.975Z,85.50
2022-11-26T07:02:41.895Z,85.22
2022-11-26T07:03:41.760Z,85.03
2022-11-26T07:04:41.783Z,85.31
2022-11-26T07:05:41.590Z,84.94
2022-11-26T07:06:41.506Z,84.94
2022-11-26T07:07:41.468Z,84.94
2022-11-26T07:08:41.336Z,85.22
2022-11-26T07:09:41.249Z,85.03
2022-11-26T07:10:46.087Z,85.22
2022-11-26T07:11:41.078Z,85.78
2022-11-26T07:12:40.989Z,85.50
2022-11-26T07:13:40.905Z,85.78
2022-11-26T07:14:41.150Z,85.88
2022-11-26T07:15:40.770Z,86.26
2022-11-26T07:16:40.722Z,85.97
2022-11-26T07:17:40.562Z,86.26
2022-11-26T07:18:40.479Z,85.88
2022-11-26T07:19:40.390Z,85.88
2022-11-26T07:20:40.305Z,85.88
2022-11-26T07:21:40.268Z,86.35
2022-11-26T07:22:40.135Z,86.26
2022-11-26T07:23:40.049Z,86.74
2022-11-26T07:24:40.360Z,86.83
2022-11-26T07:25:39.876Z,86.60
2022-11-26T07:26:39.808Z,86.69
2022-11-26T07:27:39.703Z,86.93
2022-11-26T07:28:39.616Z,86.64
2022-11-26T07:29:39.532Z,86.69
2022-11-26T07:30:39.449Z,86.41
2022-11-26T07:31:39.421Z,87.26
2022-11-26T07:32:39.276Z,86.50
2022-11-26T07:33:39.189Z,87.26
2022-11-26T07:34:39.465Z,86.41
2022-11-26T07:35:39.016Z,86.98
2022-11-26T07:36:38.933Z,86.50
2022-11-26T07:37:38.844Z,86.79
2022-11-26T07:38:38.761Z,86.79
2022-11-26T07:39:38.672Z,86.31
2022-11-26T07:40:38.586Z,85.93
2022-11-26T07:41:38.503Z,86.12
2022-11-26T07:42:38.441Z,85.88
2022-11-26T07:43:38.338Z,86.12
2022-11-26T07:44:38.604Z,86.12
2022-11-26T07:45:38.209Z,85.84
2022-11-26T07:46:38.104Z,86.03
2022-11-26T07:47:37.989Z,86.12
2022-11-26T07:48:37.901Z,86.22
2022-11-26T07:49:37.813Z,86.22
2022-11-26T07:50:37.730Z,86.22
2022-11-26T07:51:37.641Z,86.22
2022-11-26T07:52:37.556Z,86.22
2022-11-26T07:53:37.468Z,85.74
2022-11-26T07:54:37.695Z,85.84
2022-11-26T07:55:37.303Z,85.74
2022-11-26T07:56:37.218Z,85.69
2022-11-26T07:57:37.126Z,85.78
2022-11-26T07:58:37.062Z,86.07
2022-11-26T07:59:36.952Z,86.22
2022-11-26T08:00:36.872Z,86.26
2022-11-26T08:01:36.903Z,86.12
2022-11-26T08:02:36.768Z,86.22
2022-11-26T08:03:36.611Z,86.16
2022-11-26T08:04:36.684Z,86.07
2022-11-26T08:05:36.440Z,85.88
2022-11-26T08:06:36.360Z,86.16
2022-11-26T08:07:36.285Z,85.97
2022-11-26T08:08:36.192Z,86.07
2022-11-26T08:09:36.100Z,86.07
2022-11-26T08:10:36.013Z,86.16
2022-11-26T08:11:35.925Z,85.97
2022-11-26T08:12:35.841Z,86.16
2022-11-26T08:13:35.751Z,86.16
2022-11-26T08:14:35.988Z,86.07
2022-11-26T08:15:35.583Z,85.50
2022-11-26T08:16:35.687Z,85.69
2022-11-26T08:17:35.411Z,85.31
2022-11-26T08:18:35.328Z,85.60
2022-11-26T08:19:35.239Z,85.60
2022-11-26T08:20:35.155Z,85.60
2022-11-26T08:21:35.068Z,85.50
2022-11-26T08:22:34.982Z,85.41
2022-11-26T08:23:34.897Z,85.41
2022-11-26T08:24:34.816Z,85.50
2022-11-26T08:25:34.728Z,85.22
2022-11-26T08:26:39.662Z,85.31
2022-11-26T08:27:34.553Z,84.84
2022-11-26T08:28:34.470Z,84.84
2022-11-26T08:29:34.388Z,85.22
2022-11-26T08:30:34.319Z,84.65
2022-11-26T08:31:34.244Z,84.27
2022-11-26T08:32:34.127Z,84.03
2022-11-26T08:33:34.046Z,84.12
2022-11-26T08:34:33.960Z,84.22
2022-11-26T08:35:59.069Z,83.65
2022-11-26T08:36:33.789Z,83.74
2022-11-26T08:37:33.901Z,83.94
2022-11-26T08:38:33.618Z,83.94
2022-11-26T08:39:33.533Z,84.31
2022-11-26T08:40:33.446Z,84.12
2022-11-26T08:41:33.362Z,84.50
2022-11-26T08:42:33.279Z,84.31
2022-11-26T08:43:58.737Z,84.41
2022-11-26T08:44:33.109Z,84.36
2022-11-26T08:45:33.027Z,84.88
2022-11-26T08:46:32.994Z,85.11
2022-11-26T08:47:32.854Z,85.59
2022-11-26T08:48:32.771Z,85.59
2022-11-26T08:49:32.696Z,85.97
2022-11-26T08:50:32.602Z,86.44
2022-11-26T08:51:32.517Z,87.49
2022-11-26T08:52:32.432Z,87.96
2022-11-26T08:53:32.346Z,88.53
2022-11-26T08:54:32.264Z,88.72
2022-11-26T08:55:58.856Z,89.48
2022-11-26T08:56:32.095Z,89.95
2022-11-26T08:57:32.010Z,89.81
2022-11-26T08:58:31.930Z,89.72
2022-11-26T08:59:31.842Z,90.38
2022-11-26T09:00:31.761Z,91.42
2022-11-26T09:01:31.707Z,91.75
2022-11-26T09:02:31.615Z,93.04
2022-11-26T09:03:31.506Z,92.47
2022-11-26T09:04:31.425Z,93.13
2022-11-26T09:05:31.336Z,93.41
2022-11-26T09:06:31.254Z,93.13
2022-11-26T09:07:31.244Z,93.32
2022-11-26T09:08:31.088Z,93.70
2022-11-26T09:09:31.252Z,94.08
2022-11-26T09:10:30.970Z,94.37
2022-11-26T09:11:30.837Z,94.65
2022-11-26T09:12:30.754Z,94.56
2022-11-26T09:13:30.670Z,94.37
2022-11-26T09:14:30.652Z,94.37
2022-11-26T09:15:30.501Z,94.46
2022-11-26T09:16:30.444Z,94.46
2022-11-26T09:17:30.334Z,95.12
2022-11-26T09:18:30.273Z,94.37
2022-11-26T09:19:30.169Z,94.46
2022-11-26T09:20:30.085Z,94.60
2022-11-26T09:21:30.003Z,94.51
2022-11-26T09:22:29.920Z,96.22
2022-11-26T09:23:29.835Z,97.45
2022-11-26T09:24:29.760Z,99.07
2022-11-26T09:25:29.674Z,99.35
2022-11-26T09:26:29.589Z,99.64
2022-11-26T09:27:29.504Z,99.99
2022-11-26T09:28:29.422Z,99.99
2022-11-26T09:29:29.340Z,99.99
2022-11-26T09:30:29.257Z,99.99
2022-11-26T09:31:29.223Z,99.99
2022-11-26T09:32:33.921Z,99.99
2022-11-26T09:33:29.010Z,99.99
2022-11-26T09:34:28.965Z,99.99
2022-11-26T09:35:28.844Z,99.99
2022-11-26T09:36:28.762Z,99.99
2022-11-26T09:37:28.678Z,99.99
2022-11-26T09:38:28.597Z,99.99
2022-11-26T09:39:28.513Z,99.99
2022-11-26T09:40:28.432Z,99.99
2022-11-26T09:41:28.348Z,99.99
2022-11-26T09:42:28.290Z,99.99
2022-11-26T09:43:28.182Z,99.99
2022-11-26T09:44:28.100Z,99.99
2022-11-26T09:45:28.073Z,99.99
2022-11-26T09:46:36.776Z,99.99
2022-11-26T09:47:27.861Z,99.99
2022-11-26T09:48:27.770Z,99.99
2022-11-26T09:49:27.687Z,99.99
2022-11-26T09:50:27.625Z,99.99
2022-11-26T09:51:27.528Z,99.99
2022-11-26T09:52:27.439Z,99.99
2022-11-26T09:53:27.363Z,99.99
2022-11-26T09:54:27.277Z,99.99
2022-11-26T09:55:27.203Z,99.99
2022-11-26T09:56:27.113Z,99.99
2022-11-26T09:57:27.030Z,99.99
2022-11-26T09:58:27.682Z,99.99
2022-11-26T09:59:26.865Z,99.99
2022-11-26T10:00:26.784Z,99.99
2022-11-26T10:01:26.749Z,99.99
2022-11-26T10:02:26.700Z,99.99
2022-11-26T10:03:26.533Z,99.99
2022-11-26T10:04:26.453Z,99.99
2022-11-26T10:05:26.371Z,99.99
2022-11-26T10:06:26.307Z,99.99
2022-11-26T10:07:26.277Z,99.99
2022-11-26T10:08:26.126Z,99.99
2022-11-26T10:09:26.142Z,99.99
2022-11-26T10:10:25.958Z,99.99
2022-11-26T10:11:25.877Z,99.99
2022-11-26T10:12:26.568Z,99.99
2022-11-26T10:13:25.712Z,99.99
2022-11-26T10:14:25.731Z,99.99
2022-11-26T10:15:25.549Z,99.99
2022-11-26T10:16:25.520Z,99.99
2022-11-26T10:17:25.386Z,99.99
2022-11-26T10:18:25.302Z,99.99
2022-11-26T10:19:25.221Z,99.99
2022-11-26T10:20:25.143Z,99.99
2022-11-26T10:21:37.997Z,99.99
2022-11-26T10:22:24.999Z,99.99
2022-11-26T10:23:24.899Z,99.99
2022-11-26T10:24:24.820Z,99.99
2022-11-26T10:25:24.783Z,99.99
2022-11-26T10:26:24.660Z,99.99
2022-11-26T10:27:24.582Z,99.99
2022-11-26T10:28:24.501Z,99.99
2022-11-26T10:29:24.422Z,99.99
2022-11-26T10:30:24.341Z,99.99
2022-11-26T10:31:24.333Z,99.99
2022-11-26T10:32:24.182Z,99.99
2022-11-26T10:33:24.103Z,99.99
2022-11-26T10:34:24.025Z,99.99
2022-11-26T10:35:23.946Z,99.99
2022-11-26T10:36:23.864Z,99.99
2022-11-26T10:37:23.791Z,99.99
2022-11-26T10:38:23.724Z,99.99
2022-11-26T10:39:23.630Z,99.99
2022-11-26T10:40:23.548Z,99.99
2022-11-26T10:41:23.470Z,99.99
2022-11-26T10:42:23.392Z,99.99
2022-11-26T10:43:23.312Z,99.99
2022-11-26T10:44:23.233Z,99.99
2022-11-26T10:45:23.157Z,99.99
2022-11-26T10:46:23.150Z,99.99
2022-11-26T10:47:22.998Z,99.99
2022-11-26T10:48:22.933Z,99.99
2022-11-26T10:49:22.845Z,99.99
2022-11-26T10:50:46.538Z,99.99
2022-11-26T10:52:22.609Z,99.99
2022-11-26T10:53:22.531Z,99.99
2022-11-26T10:54:22.469Z,99.99
2022-11-26T10:55:22.368Z,99.99
2022-11-26T10:56:22.290Z,99.99
2022-11-26T10:57:22.214Z,99.99
2022-11-26T10:58:22.135Z,99.99
2022-11-26T10:59:22.065Z,99.99
2022-11-26T11:00:21.974Z,99.99
2022-11-26T11:01:21.964Z,99.99
2022-11-26T11:02:21.871Z,99.99
2022-11-26T11:03:38.213Z,99.99
2022-11-26T11:04:21.661Z,99.99
2022-11-26T11:05:21.579Z,99.99
2022-11-26T11:06:21.501Z,99.99
2022-11-26T11:07:21.443Z,99.99
2022-11-26T11:08:21.393Z,99.99
2022-11-26T11:09:21.265Z,99.99
2022-11-26T11:10:21.203Z,99.99
2022-11-26T11:11:21.118Z,99.99
2022-11-26T11:12:21.029Z,99.99
2022-11-26T11:13:20.950Z,99.99
2022-11-26T11:14:20.873Z,99.99
2022-11-26T11:15:20.795Z,99.99
2022-11-26T11:16:20.815Z,99.99
2022-11-26T11:17:20.636Z,99.99
2022-11-26T11:18:20.604Z,99.99
2022-11-26T11:19:20.479Z,99.99
2022-11-26T11:20:20.402Z,99.99
2022-11-26T11:21:20.326Z,99.99
2022-11-26T11:22:20.246Z,99.99
2022-11-26T11:23:20.168Z,99.99
2022-11-26T11:24:20.191Z,99.99
2022-11-26T11:25:20.015Z,99.99
2022-11-26T11:26:20.157Z,99.99
2022-11-26T11:27:19.858Z,99.99
2022-11-26T11:28:19.781Z,99.99
2022-11-26T11:29:19.705Z,99.99
2022-11-26T11:30:19.626Z,99.99
2022-11-26T11:31:19.719Z,99.99
2022-11-26T11:32:19.472Z,99.99
2022-11-26T11:33:19.400Z,99.99
2022-11-26T11:34:19.319Z,99.99
2022-11-26T11:35:19.241Z,99.99
2022-11-26T11:36:19.164Z,99.99
2022-11-26T11:37:19.087Z,99.99
2022-11-26T11:38:19.011Z,99.99
2022-11-26T11:39:18.932Z,99.99
2022-11-26T11:40:18.855Z,99.99
2022-11-26T11:41:18.779Z,99.99
2022-11-26T11:42:18.720Z,99.99
2022-11-26T11:43:18.620Z,99.99
2022-11-26T11:44:18.545Z,99.99
2022-11-26T11:45:18.461Z,99.99
2022-11-26T11:46:18.446Z,99.99
2022-11-26T11:47:18.305Z,99.99
2022-11-26T11:48:18.227Z,99.99
2022-11-26T11:49:18.171Z,99.99
2022-11-26T11:50:18.074Z,99.99
2022-11-26T11:51:17.993Z,99.99
2022-11-26T11:52:17.916Z,99.99
2022-11-26T11:53:17.835Z,99.99
2022-11-26T11:54:17.752Z,99.99
2022-11-26T11:55:17.674Z,99.99
2022-11-26T11:56:17.598Z,99.99
2022-11-26T11:57:17.530Z,99.99
2022-11-26T11:58:17.452Z,99.99
2022-11-26T11:59:17.358Z,99.99
2022-11-26T12:00:17.289Z,99.99
2022-11-26T12:01:17.199Z,99.99
2022-11-26T12:02:17.253Z,99.99
2022-11-26T12:03:17.040Z,99.99
2022-11-26T12:04:19.596Z,99.99
2022-11-26T12:05:16.884Z,99.99
2022-11-26T12:06:16.802Z,99.99
2022-11-26T12:07:16.840Z,99.99
2022-11-26T12:08:16.644Z,99.99
2022-11-26T12:09:16.565Z,99.99
2022-11-26T12:10:16.488Z,99.99
2022-11-26T12:11:16.406Z,99.99
2022-11-26T12:12:16.331Z,99.99
2022-11-26T12:13:16.298Z,99.99
2022-11-26T12:14:16.190Z,99.99
2022-11-26T12:15:16.190Z,99.99
2022-11-26T12:16:16.050Z,99.99
2022-11-26T12:17:15.932Z,99.99
2022-11-26T12:18:15.852Z,99.99
2022-11-26T12:19:15.773Z,99.99
2022-11-26T12:20:15.756Z,99.99
2022-11-26T12:21:15.612Z,99.99
2022-11-26T12:22:15.536Z,99.99
2022-11-26T12:23:19.954Z,99.99
2022-11-26T12:24:15.375Z,99.99
2022-11-26T12:25:15.300Z,99.99
2022-11-26T12:26:15.215Z,99.99
2022-11-26T12:27:15.135Z,99.99
2022-11-26T12:28:15.057Z,99.99
2022-11-26T12:29:14.978Z,99.99
2022-11-26T12:30:14.922Z,99.99
2022-11-26T12:31:14.869Z,99.99
2022-11-26T12:32:14.773Z,99.99
2022-11-26T12:33:14.658Z,99.99
2022-11-26T12:34:14.578Z,99.99
2022-11-26T12:35:14.500Z,99.99
2022-11-26T12:36:14.426Z,99.99
2022-11-26T12:37:14.489Z,99.99
2022-11-26T12:38:14.258Z,99.99
2022-11-26T12:39:14.178Z,99.99
2022-11-26T12:40:14.107Z,99.99
2022-11-26T12:41:14.021Z,99.99
2022-11-26T12:42:13.940Z,99.99
2022-11-26T12:43:13.859Z,99.99
2022-11-26T12:44:13.780Z,99.99
2022-11-26T12:45:17.449Z,99.99
2022-11-26T12:46:13.700Z,99.99
2022-11-26T12:47:13.536Z,99.99
2022-11-26T12:48:13.657Z,99.99
2022-11-26T12:49:13.432Z,99.99
2022-11-26T12:50:13.390Z,99.99
2022-11-26T12:51:13.242Z,99.99
2022-11-26T12:52:13.137Z,99.99